Time;durP1;ratioP1;P1;durP2;ratioP2;P2;SDS_P1;SDS_P2;PMS_P1;PMS_P2;Temp;Humidity;BMP_temperature;BMP_pressure;BME280_temperature;BME280_humidity;BME280_pressure;Samples;Min_cycle;Max_cycle;Signal;HPM_P1;HPM_P2
2021/06/27 00:02:09;;;;;;;0.60;0.52;;;23.60;49.60;;;;;;5045405;28;20033;-37
2021/06/27 00:04:36;;;;;;;0.50;0.50;;;23.50;48.70;;;;;;5044524;28;20566;-37
2021/06/27 00:07:02;;;;;;;0.80;0.77;;;23.50;49.00;;;;;;5027428;28;20040;-37
2021/06/27 00:09:29;;;;;;;0.60;0.40;;;23.50;49.70;;;;;;5035350;28;20107;-37
2021/06/27 00:11:55;;;;;;;0.45;0.45;;;23.50;49.20;;;;;;5038054;28;20506;-37
2021/06/27 00:14:21;;;;;;;0.60;0.60;;;23.40;49.00;;;;;;5045481;28;20091;-37
2021/06/27 00:16:49;;;;;;;0.60;0.60;;;23.40;49.20;;;;;;5043453;28;20029;-37
2021/06/27 00:19:16;;;;;;;0.50;0.50;;;23.40;49.50;;;;;;5044682;28;20056;-37
2021/06/27 00:21:42;;;;;;;0.93;0.50;;;23.40;49.00;;;;;;5029879;28;20077;-37
2021/06/27 00:24:08;;;;;;;0.60;0.60;;;23.40;51.10;;;;;;5025282;28;20097;-37
2021/06/27 00:26:34;;;;;;;0.60;0.60;;;23.40;51.00;;;;;;5028136;28;20081;-37
2021/06/27 00:29:00;;;;;;;0.38;0.38;;;23.30;50.30;;;;;;5025177;28;20048;-37
2021/06/27 00:31:27;;;;;;;0.52;0.50;;;23.30;51.30;;;;;;5024945;28;20030;-37
2021/06/27 00:33:53;;;;;;;0.60;0.50;;;23.30;51.30;;;;;;5023574;28;20037;-37
2021/06/27 00:36:19;;;;;;;0.50;0.50;;;23.30;51.40;;;;;;5024988;28;20072;-37
2021/06/27 00:38:45;;;;;;;0.50;0.50;;;23.30;50.90;;;;;;5034350;28;20328;-37
2021/06/27 00:41:11;;;;;;;0.50;0.50;;;23.20;49.10;;;;;;5044800;28;20125;-37
2021/06/27 00:43:38;;;;;;;0.70;0.70;;;23.10;50.10;;;;;;5043525;28;20089;-37
2021/06/27 00:46:04;;;;;;;0.60;0.60;;;23.10;51.70;;;;;;5044800;28;20078;-37
2021/06/27 00:48:30;;;;;;;0.38;0.38;;;23.10;52.90;;;;;;5044120;28;20480;-37
2021/06/27 00:50:57;;;;;;;0.50;0.50;;;23.10;53.90;;;;;;5044537;28;20091;-37
2021/06/27 00:53:23;;;;;;;0.52;0.43;;;23.10;55.00;;;;;;5044817;28;20030;-37
2021/06/27 00:55:56;;;;;;;0.67;0.67;;;23.10;55.80;;;;;;5044773;28;20041;-37
2021/06/27 00:58:28;;;;;;;0.40;0.40;;;23.10;56.40;;;;;;5043954;28;20258;-37
2021/06/27 01:00:55;;;;;;;0.50;0.50;;;23.10;57.30;;;;;;5043680;28;20033;-37
2021/06/27 01:03:21;;;;;;;0.52;0.52;;;23.10;57.60;;;;;;5042741;28;20017;-38
2021/06/27 01:05:48;;;;;;;0.47;0.47;;;23.10;57.80;;;;;;5044429;28;20521;-37
2021/06/27 01:08:14;;;;;;;0.52;0.50;;;23.10;58.30;;;;;;5037653;28;20045;-37
2021/06/27 01:10:41;;;;;;;0.50;0.50;;;23.10;58.50;;;;;;5041425;28;20061;-37
2021/06/27 01:13:07;;;;;;;0.50;0.50;;;23.10;58.80;;;;;;5044139;28;20035;-37
2021/06/27 01:15:34;;;;;;;0.70;0.70;;;23.10;59.10;;;;;;5044146;28;20041;-37
2021/06/27 01:18:00;;;;;;;0.50;0.50;;;23.10;59.20;;;;;;5043492;28;20049;-37
2021/06/27 01:20:28;;;;;;;0.50;0.50;;;23.10;59.40;;;;;;5044075;28;20056;-37
2021/06/27 01:22:55;;;;;;;0.40;0.38;;;23.20;59.80;;;;;;5044147;28;20101;-37
2021/06/27 01:25:26;;;;;;;0.65;0.50;;;23.10;60.00;;;;;;5044067;28;20036;-37
2021/06/27 01:27:52;;;;;;;0.50;0.50;;;23.10;59.80;;;;;;5043657;28;20041;-37
2021/06/27 01:30:19;;;;;;;0.55;0.50;;;23.10;60.20;;;;;;5043958;28;20382;-36
2021/06/27 01:32:46;;;;;;;0.70;0.50;;;23.10;60.60;;;;;;5043755;28;20017;-37
2021/06/27 01:35:14;;;;;;;0.95;0.55;;;23.10;60.70;;;;;;5042298;28;20041;-37
2021/06/27 01:37:41;;;;;;;1.00;0.50;;;23.10;60.90;;;;;;5043613;28;20052;-37
2021/06/27 01:40:08;;;;;;;0.50;0.50;;;23.10;61.20;;;;;;5043516;28;20026;-37
2021/06/27 01:42:34;;;;;;;0.52;0.52;;;23.10;61.10;;;;;;5042266;28;20033;-38
2021/06/27 01:45:15;;;;;;;0.80;0.57;;;23.20;61.10;;;;;;5043663;28;20056;-37
2021/06/27 01:47:42;;;;;;;1.08;0.60;;;23.20;61.50;;;;;;5043610;28;20333;-37
2021/06/27 01:50:08;;;;;;;1.45;0.50;;;23.10;61.40;;;;;;5041860;28;20083;-37
2021/06/27 01:52:35;;;;;;;0.50;0.50;;;23.20;61.80;;;;;;5043389;28;20036;-37
2021/06/27 01:55:01;;;;;;;0.68;0.50;;;23.10;61.70;;;;;;5043294;28;20121;-37
2021/06/27 01:57:28;;;;;;;0.50;0.40;;;23.20;61.80;;;;;;5043453;28;20039;-38
2021/06/27 01:59:54;;;;;;;0.80;0.40;;;23.20;62.20;;;;;;5028517;28;20635;-37
2021/06/27 02:02:21;;;;;;;0.50;0.50;;;23.20;62.10;;;;;;5023678;28;20030;-37
2021/06/27 02:16:30;;;;;;;0.40;0.38;;;23.10;61.50;;;;;;5140608;27;20403;-35
2021/06/27 02:18:56;;;;;;;0.50;0.50;;;23.30;62.20;;;;;;5140722;27;20027;-36
2021/06/27 02:21:28;;;;;;;0.40;0.40;;;23.40;62.00;;;;;;5140499;28;20031;-36
2021/06/27 02:23:55;;;;;;;0.40;0.40;;;23.40;62.20;;;;;;5140785;27;20483;-36
2021/06/27 02:26:21;;;;;;;0.40;0.40;;;23.40;62.30;;;;;;5138431;28;20043;-36
2021/06/27 02:28:47;;;;;;;0.57;0.57;;;23.30;62.10;;;;;;5140396;28;20019;-35
2021/06/27 02:31:14;;;;;;;0.57;0.57;;;23.40;62.30;;;;;;5140766;27;20023;-35
2021/06/27 02:33:40;;;;;;;0.70;0.65;;;23.30;62.50;;;;;;5140632;27;20500;-35
2021/06/27 02:36:07;;;;;;;0.40;0.40;;;23.30;62.30;;;;;;5138883;28;20023;-36
2021/06/27 02:38:33;;;;;;;0.40;0.40;;;23.30;62.40;;;;;;5140362;28;20251;-36
2021/06/27 02:40:59;;;;;;;0.63;0.60;;;23.30;62.70;;;;;;5140455;28;20046;-36
2021/06/27 02:43:26;;;;;;;0.40;0.40;;;23.30;62.10;;;;;;5140445;28;20034;-36
2021/06/27 02:45:52;;;;;;;0.50;0.50;;;23.30;62.30;;;;;;5140280;28;20103;-36
2021/06/27 02:48:19;;;;;;;0.63;0.52;;;23.30;62.40;;;;;;5140264;28;20077;-36
2021/06/27 02:50:45;;;;;;;0.40;0.40;;;23.30;62.50;;;;;;5140280;28;20672;-36
2021/06/27 02:53:11;;;;;;;0.40;0.40;;;23.30;62.60;;;;;;5140116;28;21040;-36
2021/06/27 02:55:37;;;;;;;0.60;0.60;;;23.30;62.70;;;;;;5140091;28;20824;-36
2021/06/27 02:58:04;;;;;;;0.52;0.43;;;23.30;62.50;;;;;;5140225;27;20558;-36
2021/06/27 03:00:30;;;;;;;0.83;0.63;;;23.30;62.50;;;;;;5140006;27;20562;-36
2021/06/27 03:02:57;;;;;;;0.40;0.40;;;23.30;62.80;;;;;;5138833;28;20550;-36
2021/06/27 03:05:23;;;;;;;0.50;0.50;;;23.30;62.80;;;;;;5139078;27;20039;-36
2021/06/27 03:07:49;;;;;;;0.50;0.50;;;23.30;62.80;;;;;;5128059;28;20053;-35
2021/06/27 03:10:16;;;;;;;0.40;0.40;;;23.30;62.70;;;;;;5119482;28;20031;-36
2021/06/27 03:12:44;;;;;;;0.40;0.40;;;23.30;63.60;;;;;;5119246;28;20031;-36
2021/06/27 03:15:10;;;;;;;;;;;23.30;63.90;;;;;;5119166;28;20077;-36
2021/06/27 03:17:36;;;;;;;0.50;0.50;;;23.30;64.30;;;;;;5104918;28;19908;-36
2021/06/27 03:20:03;;;;;;;0.75;0.63;;;23.30;64.60;;;;;;5105498;28;20046;-36
2021/06/27 03:22:30;;;;;;;0.60;0.55;;;23.30;64.60;;;;;;5105585;28;20036;-36
2021/06/27 03:24:56;;;;;;;0.85;0.85;;;23.30;64.90;;;;;;5104019;28;20117;-36
2021/06/27 03:27:22;;;;;;;0.60;0.60;;;23.30;65.00;;;;;;5105465;28;20032;-36
2021/06/27 03:29:49;;;;;;;0.50;0.50;;;23.30;65.10;;;;;;5105334;28;20043;-36
2021/06/27 03:32:15;;;;;;;0.57;0.50;;;23.30;65.20;;;;;;5105277;28;20020;-36
2021/06/27 03:34:41;;;;;;;0.55;0.52;;;23.30;65.00;;;;;;5105505;28;20070;-35
2021/06/27 03:37:07;;;;;;;0.65;0.63;;;23.30;65.20;;;;;;5118531;28;20050;-36
2021/06/27 03:39:34;;;;;;;0.60;0.60;;;23.30;64.60;;;;;;5125581;28;20027;-36
2021/06/27 03:42:00;;;;;;;0.57;0.57;;;23.30;64.80;;;;;;5125576;28;20027;-35
2021/06/27 03:44:26;;;;;;;0.47;0.47;;;23.30;64.10;;;;;;5125450;28;20032;-35
2021/06/27 03:46:53;;;;;;;1.02;0.70;;;23.30;63.90;;;;;;5125272;28;20024;-36
2021/06/27 03:49:19;;;;;;;0.60;0.60;;;23.30;64.00;;;;;;5125362;28;20047;-36
2021/06/27 03:51:46;;;;;;;0.60;0.60;;;23.30;64.00;;;;;;5125312;28;20051;-36
2021/06/27 03:54:12;;;;;;;0.80;0.60;;;23.30;63.70;;;;;;5125457;28;20137;-36
2021/06/27 03:56:38;;;;;;;0.90;0.60;;;23.30;64.20;;;;;;5125344;28;20035;-36
2021/06/27 03:59:05;;;;;;;0.63;0.60;;;23.30;63.80;;;;;;5124758;28;20643;-36
2021/06/27 04:01:31;;;;;;;0.70;0.70;;;23.30;63.90;;;;;;5125346;28;20044;-36
2021/06/27 04:03:57;;;;;;;0.80;0.70;;;23.30;64.00;;;;;;5125230;28;20036;-36
2021/06/27 04:06:24;;;;;;;0.50;0.50;;;23.30;65.20;;;;;;5124720;28;20503;-36
2021/06/27 04:08:50;;;;;;;0.80;0.60;;;23.30;65.50;;;;;;5124965;28;20050;-36
2021/06/27 04:11:16;;;;;;;0.80;0.57;;;23.30;65.50;;;;;;5124973;28;20035;-36
2021/06/27 04:13:42;;;;;;;1.23;0.60;;;23.30;65.40;;;;;;5125067;28;20024;-36
2021/06/27 04:16:09;;;;;;;0.80;0.70;;;23.30;65.40;;;;;;5124349;28;20043;-36
2021/06/27 04:18:36;;;;;;;0.63;0.60;;;23.30;65.50;;;;;;5124675;28;20083;-36
2021/06/27 04:21:02;;;;;;;0.90;0.52;;;23.30;65.80;;;;;;5124778;28;20095;-36
2021/06/27 04:23:29;;;;;;;0.67;0.67;;;23.30;66.10;;;;;;5124716;28;20024;-36
2021/06/27 04:25:55;;;;;;;1.10;0.60;;;23.30;66.10;;;;;;5123331;28;20039;-36
2021/06/27 04:28:22;;;;;;;0.60;0.60;;;23.30;65.40;;;;;;5123586;28;20031;-35
2021/06/27 04:30:48;;;;;;;0.68;0.68;;;23.30;64.70;;;;;;5124560;28;20122;-36
2021/06/27 04:33:14;;;;;;;0.80;0.80;;;23.30;64.70;;;;;;5123475;28;20055;-36
2021/06/27 04:35:40;;;;;;;1.42;0.90;;;23.30;64.70;;;;;;5124250;28;20092;-36
2021/06/27 04:38:08;;;;;;;0.80;0.60;;;23.30;64.60;;;;;;5124169;28;20106;-36
2021/06/27 04:40:37;;;;;;;0.93;0.60;;;23.30;64.70;;;;;;5124525;28;20027;-36
2021/06/27 04:43:04;;;;;;;0.73;0.50;;;23.30;64.90;;;;;;5122859;28;20678;-36
2021/06/27 04:45:30;;;;;;;0.60;0.50;;;23.30;64.40;;;;;;5124038;28;20116;-36
2021/06/27 04:47:57;;;;;;;0.65;0.65;;;23.30;64.50;;;;;;5124252;28;20555;-35
2021/06/27 04:50:24;;;;;;;0.73;0.70;;;23.30;64.40;;;;;;5122644;28;20034;-36
2021/06/27 04:52:53;;;;;;;0.60;0.60;;;23.30;64.70;;;;;;5124155;28;20038;-36
2021/06/27 04:55:20;;;;;;;1.00;0.80;;;23.30;64.80;;;;;;5122661;28;20039;-36
2021/06/27 04:57:46;;;;;;;0.60;0.57;;;23.30;65.50;;;;;;5122677;28;20045;-36
2021/06/27 05:00:12;;;;;;;0.68;0.68;;;23.30;65.70;;;;;;5123884;28;20028;-36
2021/06/27 05:02:39;;;;;;;0.70;0.70;;;23.30;65.70;;;;;;5122478;28;20023;-36
2021/06/27 05:05:05;;;;;;;0.50;0.50;;;23.30;66.20;;;;;;5123672;28;20046;-36
2021/06/27 05:07:32;;;;;;;0.65;0.65;;;23.30;66.10;;;;;;5111099;28;20024;-36
2021/06/27 05:09:58;;;;;;;0.70;0.70;;;23.30;66.50;;;;;;5103115;28;20031;-36
2021/06/27 05:12:25;;;;;;;0.60;0.60;;;23.30;66.10;;;;;;5103648;28;20020;-36
2021/06/27 05:14:51;;;;;;;0.50;0.50;;;23.30;66.60;;;;;;5113279;28;20055;-36
2021/06/27 05:17:17;;;;;;;0.60;0.60;;;23.30;66.80;;;;;;5123713;28;20024;-36
2021/06/27 05:19:43;;;;;;;0.57;0.57;;;23.30;65.60;;;;;;5123572;28;20023;-36
2021/06/27 05:22:10;;;;;;;0.68;0.68;;;23.30;65.30;;;;;;5123501;28;20047;-36
2021/06/27 05:24:36;;;;;;;0.60;0.60;;;23.30;65.20;;;;;;5123436;28;20044;-36
2021/06/27 05:27:03;;;;;;;0.57;0.57;;;23.30;65.90;;;;;;5123577;28;20024;-36
2021/06/27 05:29:29;;;;;;;0.73;0.68;;;23.30;65.50;;;;;;5121769;28;20039;-36
2021/06/27 05:31:55;;;;;;;0.47;0.47;;;23.30;65.80;;;;;;5123551;28;20019;-36
2021/06/27 05:34:21;;;;;;;0.50;0.50;;;23.30;66.00;;;;;;5123282;28;20027;-36
2021/06/27 05:36:47;;;;;;;0.70;0.70;;;23.30;66.50;;;;;;5122970;28;20036;-36
2021/06/27 05:39:14;;;;;;;0.70;0.70;;;23.30;66.00;;;;;;5123050;28;20558;-36
2021/06/27 05:41:40;;;;;;;0.70;0.70;;;23.30;67.10;;;;;;5123292;28;20028;-36
2021/06/27 05:44:07;;;;;;;0.87;0.87;;;23.30;66.70;;;;;;5123134;28;20032;-36
2021/06/27 05:46:33;;;;;;;0.70;0.70;;;23.30;67.00;;;;;;5123130;28;20039;-36
2021/06/27 05:48:59;;;;;;;0.87;0.60;;;23.30;67.00;;;;;;5122950;28;20066;-36
2021/06/27 05:51:26;;;;;;;0.55;0.55;;;23.30;66.90;;;;;;5122788;28;20283;-36
2021/06/27 05:53:52;;;;;;;0.70;0.70;;;23.30;67.20;;;;;;5123205;28;20035;-36
2021/06/27 05:56:20;;;;;;;0.65;0.65;;;23.30;67.00;;;;;;5123138;28;20073;-36
2021/06/27 05:58:46;;;;;;;0.85;0.63;;;23.30;67.40;;;;;;5123096;28;20030;-36
2021/06/27 06:01:14;;;;;;;0.82;0.60;;;23.20;67.50;;;;;;5122710;28;20053;-36
2021/06/27 06:03:40;;;;;;;1.23;0.90;;;23.20;67.40;;;;;;5123150;28;20114;-36
2021/06/27 06:06:07;;;;;;;0.95;0.60;;;23.20;67.30;;;;;;5122848;28;20043;-36
2021/06/27 06:08:33;;;;;;;0.52;0.52;;;23.20;67.20;;;;;;5121346;28;20065;-36
2021/06/27 06:11:00;;;;;;;0.65;0.65;;;23.30;67.00;;;;;;5122819;28;20034;-36
2021/06/27 06:13:26;;;;;;;0.75;0.70;;;23.20;67.00;;;;;;5122915;28;20038;-36
2021/06/27 06:15:52;;;;;;;0.50;0.50;;;23.20;67.00;;;;;;5122608;28;20059;-36
2021/06/27 06:18:18;;;;;;;0.60;0.60;;;23.20;67.00;;;;;;5122900;28;20023;-36
2021/06/27 06:20:44;;;;;;;0.88;0.68;;;23.20;67.10;;;;;;5122533;28;20483;-36
2021/06/27 06:23:11;;;;;;;0.50;0.50;;;23.20;66.90;;;;;;5122694;28;20031;-36
2021/06/27 06:25:37;;;;;;;0.70;0.70;;;23.20;66.80;;;;;;5122596;28;20035;-36
2021/06/27 06:28:03;;;;;;;0.80;0.70;;;23.20;66.90;;;;;;5122900;28;20130;-36
2021/06/27 06:30:29;;;;;;;0.70;0.57;;;23.20;67.20;;;;;;5121113;28;20035;-36
2021/06/27 06:32:55;;;;;;;0.52;0.50;;;23.20;68.20;;;;;;5122707;28;20028;-36
2021/06/27 06:35:21;;;;;;;0.52;0.50;;;23.20;67.60;;;;;;5122976;28;20031;-36
2021/06/27 06:37:48;;;;;;;0.52;0.50;;;23.20;68.00;;;;;;5122557;28;20020;-36
2021/06/27 06:40:14;;;;;;;0.60;0.60;;;23.20;67.90;;;;;;5122618;28;20754;-36
2021/06/27 06:42:40;;;;;;;0.93;0.73;;;23.20;67.90;;;;;;5122603;28;20028;-36
2021/06/27 06:45:07;;;;;;;0.80;0.60;;;23.20;67.70;;;;;;5122445;28;20039;-36
2021/06/27 06:47:33;;;;;;;0.70;0.60;;;23.20;67.80;;;;;;5122557;28;20027;-35
2021/06/27 06:49:59;;;;;;;0.70;0.60;;;23.20;67.90;;;;;;5122490;28;20563;-35
2021/06/27 06:52:25;;;;;;;0.60;0.60;;;23.20;67.80;;;;;;5125452;28;20142;-36
2021/06/27 06:54:51;;;;;;;0.50;0.50;;;23.20;68.00;;;;;;5126392;28;20038;-36
2021/06/27 06:57:17;;;;;;;0.55;0.55;;;23.20;67.70;;;;;;5126357;28;20038;-36
2021/06/27 06:59:43;;;;;;;0.60;0.60;;;23.20;67.60;;;;;;5126327;28;20562;-36
2021/06/27 07:02:10;;;;;;;0.55;0.55;;;23.20;67.40;;;;;;5126248;28;20039;-36
2021/06/27 07:04:36;;;;;;;0.50;0.50;;;23.20;67.90;;;;;;5126196;28;20024;-36
2021/06/27 07:07:02;;;;;;;0.50;0.50;;;23.20;67.50;;;;;;5114997;28;20032;-36
2021/06/27 07:09:28;;;;;;;0.60;0.60;;;23.20;67.50;;;;;;5126283;28;20263;-36
2021/06/27 07:11:55;;;;;;;1.05;0.40;;;23.20;67.50;;;;;;5125750;28;20118;-36
2021/06/27 07:14:21;;;;;;;0.65;0.55;;;23.20;68.20;;;;;;5125793;28;20026;-36
2021/06/27 07:16:47;;;;;;;0.70;0.50;;;23.20;67.50;;;;;;5125932;28;20104;-36
2021/06/27 07:19:13;;;;;;;1.20;0.60;;;23.20;67.90;;;;;;5126045;28;20019;-36
2021/06/27 07:21:43;;;;;;;0.50;0.50;;;23.20;68.10;;;;;;5124384;28;20058;-36
2021/06/27 07:24:09;;;;;;;0.50;0.50;;;23.20;68.60;;;;;;5125726;28;20066;-36
2021/06/27 07:26:35;;;;;;;0.57;0.47;;;23.20;68.30;;;;;;5124369;28;20032;-36
2021/06/27 07:29:01;;;;;;;0.93;0.60;;;23.20;68.40;;;;;;5125816;28;20028;-36
2021/06/27 07:31:28;;;;;;;0.65;0.50;;;23.10;68.40;;;;;;5125259;28;20027;-36
2021/06/27 07:33:54;;;;;;;0.50;0.50;;;23.20;68.20;;;;;;5125947;28;20023;-36
2021/06/27 07:36:20;;;;;;;0.52;0.40;;;23.20;68.50;;;;;;5122814;28;20031;-36
2021/06/27 07:38:46;;;;;;;0.40;0.40;;;23.10;68.40;;;;;;5104826;28;20046;-37
2021/06/27 07:41:14;;;;;;;0.73;0.50;;;23.20;68.40;;;;;;5104941;28;20028;-36
2021/06/27 07:43:40;;;;;;;0.50;0.50;;;23.20;68.30;;;;;;5110238;28;20023;-36
2021/06/27 07:46:07;;;;;;;0.47;0.47;;;23.20;68.10;;;;;;5125076;28;20044;-36
2021/06/27 07:48:33;;;;;;;0.47;0.47;;;23.20;68.00;;;;;;5125721;27;20028;-36
2021/06/27 07:51:00;;;;;;;0.88;0.50;;;23.20;67.90;;;;;;5125116;28;20035;-36
2021/06/27 07:53:26;;;;;;;0.40;0.40;;;23.20;68.10;;;;;;5125237;28;20027;-36
2021/06/27 07:55:52;;;;;;;0.40;0.40;;;23.20;68.00;;;;;;5125373;28;20090;-36
2021/06/27 07:58:18;;;;;;;1.05;0.70;;;23.20;67.80;;;;;;5124015;28;20024;-36
2021/06/27 08:00:45;;;;;;;0.57;0.50;;;23.20;67.90;;;;;;5124767;28;20020;-36
2021/06/27 08:03:11;;;;;;;0.60;0.50;;;23.20;68.00;;;;;;5125155;28;20030;-36
2021/06/27 08:05:37;;;;;;;0.60;0.50;;;23.10;68.10;;;;;;5123302;28;20314;-36
2021/06/27 08:08:04;;;;;;;0.30;0.30;;;23.20;68.80;;;;;;5123394;28;20030;-36
2021/06/27 08:10:30;;;;;;;0.43;0.40;;;23.20;69.00;;;;;;5124965;28;20047;-36
2021/06/27 08:12:56;;;;;;;0.60;0.47;;;23.20;68.80;;;;;;5124824;28;20032;-36
2021/06/27 08:15:22;;;;;;;0.50;0.50;;;23.20;68.40;;;;;;5124435;28;20048;-36
2021/06/27 08:17:50;;;;;;;0.40;0.40;;;23.20;68.60;;;;;;5124779;28;20304;-36
2021/06/27 08:20:16;;;;;;;0.50;0.50;;;23.20;68.70;;;;;;5124843;28;20037;-36
2021/06/27 08:22:43;;;;;;;0.40;0.40;;;23.20;68.60;;;;;;5124550;28;20039;-36
2021/06/27 08:25:09;;;;;;;0.50;0.50;;;23.20;68.60;;;;;;5124723;28;20075;-36
2021/06/27 08:27:35;;;;;;;0.52;0.50;;;23.20;68.90;;;;;;5124762;28;20016;-36
2021/06/27 08:30:04;;;;;;;0.57;0.57;;;23.20;68.60;;;;;;5124541;28;20084;-36
2021/06/27 08:32:31;;;;;;;0.45;0.38;;;23.20;68.70;;;;;;5124474;28;20073;-36
2021/06/27 08:34:58;;;;;;;0.50;0.50;;;23.20;68.60;;;;;;5124692;28;20031;-36
2021/06/27 08:37:24;;;;;;;0.50;0.40;;;23.20;69.40;;;;;;5124087;28;20053;-36
2021/06/27 08:39:50;;;;;;;0.45;0.40;;;23.20;68.70;;;;;;5124508;28;20031;-36
2021/06/27 08:42:20;;;;;;;0.50;0.40;;;23.20;68.60;;;;;;5124187;28;20020;-36
2021/06/27 08:44:47;;;;;;;0.77;0.50;;;23.20;68.80;;;;;;5124249;28;20089;-36
2021/06/27 08:47:17;;;;;;;0.50;0.50;;;23.20;68.90;;;;;;5124179;28;20035;-36
2021/06/27 08:49:47;;;;;;;0.45;0.45;;;23.20;68.80;;;;;;5103979;28;20032;-36
2021/06/27 08:52:18;;;;;;;0.70;0.50;;;23.20;69.30;;;;;;5103655;28;20028;-36
2021/06/27 08:54:45;;;;;;;0.60;0.45;;;23.20;69.00;;;;;;5103677;28;20032;-36
2021/06/27 08:57:12;;;;;;;0.85;0.40;;;23.20;68.90;;;;;;5121285;28;20027;-36
2021/06/27 08:59:39;;;;;;;0.40;0.40;;;23.20;69.10;;;;;;5122771;28;20031;-36
2021/06/27 09:02:05;;;;;;;0.60;0.57;;;23.20;69.20;;;;;;5123846;28;20474;-36
2021/06/27 09:04:34;;;;;;;0.40;0.40;;;23.20;69.10;;;;;;5123862;28;20038;-36
2021/06/27 09:07:28;;;;;;;0.57;0.40;;;23.20;69.00;;;;;;5122436;28;20303;-36
2021/06/27 09:09:55;;;;;;;0.75;0.43;;;23.20;69.10;;;;;;5123831;28;20031;-36
2021/06/27 09:12:22;;;;;;;0.85;0.68;;;23.20;69.10;;;;;;5123673;28;20603;-36
2021/06/27 09:14:48;;;;;;;0.60;0.60;;;23.20;69.20;;;;;;5123152;28;20673;-35
2021/06/27 09:17:23;;;;;;;0.55;0.55;;;23.20;69.60;;;;;;5122480;28;20119;-36
2021/06/27 09:20:21;;;;;;;0.70;0.40;;;23.20;69.30;;;;;;5123822;28;20027;-36
2021/06/27 09:22:51;;;;;;;0.85;0.70;;;23.20;69.20;;;;;;5059889;28;20481;-36
2021/06/27 09:25:25;;;;;;;0.50;0.50;;;23.20;69.30;;;;;;5059597;28;20729;-36
2021/06/27 09:28:04;;;;;;;0.73;0.55;;;23.20;69.60;;;;;;5060271;28;20078;-36
2021/06/27 09:30:55;;;;;;;0.90;0.50;;;23.20;69.60;;;;;;5059973;28;20028;-36
2021/06/27 09:33:23;;;;;;;0.45;0.45;;;23.20;69.60;;;;;;5059562;28;20029;-36
2021/06/27 09:36:00;;;;;;;0.68;0.57;;;23.20;69.40;;;;;;5059891;28;20062;-36
2021/06/27 09:38:37;;;;;;;0.50;0.50;;;23.20;69.60;;;;;;5039759;28;20061;-36
2021/06/27 09:41:14;;;;;;;0.63;0.52;;;23.20;69.80;;;;;;5040026;28;20084;-36
2021/06/27 09:43:41;;;;;;;0.63;0.52;;;23.20;69.70;;;;;;5051895;28;20025;-36
2021/06/27 09:46:12;;;;;;;0.50;0.50;;;23.20;70.20;;;;;;5042913;28;20058;-36
2021/06/27 09:49:31;;;;;;;0.77;0.60;;;23.20;69.90;;;;;;5059822;28;20308;-36
2021/06/27 09:52:07;;;;;;;1.02;0.70;;;23.20;69.90;;;;;;5057371;28;20065;-36
2021/06/27 09:54:34;;;;;;;0.95;0.63;;;23.20;70.20;;;;;;5059878;28;20568;-36
2021/06/27 09:57:00;;;;;;;1.08;0.80;;;23.20;70.60;;;;;;5059854;28;20043;-36
2021/06/27 09:59:37;;;;;;;1.23;0.53;;;23.30;70.00;;;;;;5099978;28;20765;-37
2021/06/27 10:02:04;;;;;;;3.13;0.80;;;23.30;70.20;;;;;;5101509;28;20028;-36
2021/06/27 10:04:31;;;;;;;;;;;23.30;70.10;;;;;;5102869;28;20032;-36
2021/06/27 10:06:59;;;;;;;1.10;0.90;;;23.30;70.00;;;;;;5119933;28;19908;-36
2021/06/27 10:09:32;;;;;;;0.70;0.60;;;23.30;70.10;;;;;;5121597;28;20048;-36
2021/06/27 10:12:08;;;;;;;0.70;0.60;;;23.20;69.80;;;;;;5122984;28;20026;-36
2021/06/27 10:14:51;;;;;;;0.80;0.80;;;23.30;70.10;;;;;;5122527;28;20035;-36
2021/06/27 10:17:24;;;;;;;1.33;0.65;;;23.30;70.30;;;;;;5123220;28;20050;-36
2021/06/27 10:19:51;;;;;;;0.55;0.55;;;23.30;70.60;;;;;;5122937;28;20089;-36
2021/06/27 10:22:17;;;;;;;1.25;0.75;;;23.30;70.40;;;;;;5123051;28;20034;-36
2021/06/27 10:24:44;;;;;;;0.75;0.73;;;23.30;70.30;;;;;;5122620;28;20051;-36
2021/06/27 10:27:10;;;;;;;1.05;0.85;;;23.30;70.30;;;;;;5106963;28;20031;-35
2021/06/27 10:29:38;;;;;;;1.13;0.60;;;23.30;70.60;;;;;;5139448;27;20101;-36
2021/06/27 10:32:05;;;;;;;1.58;0.80;;;23.30;70.40;;;;;;5106364;28;20035;-36
2021/06/27 10:34:31;;;;;;;0.90;0.80;;;23.30;70.30;;;;;;5138755;27;20024;-36
2021/06/27 10:37:28;;;;;;;0.73;0.57;;;23.30;71.00;;;;;;5133921;27;20092;-36
2021/06/27 10:39:59;;;;;;;0.70;0.70;;;23.30;70.60;;;;;;5119381;28;20039;-36
2021/06/27 10:42:53;;;;;;;0.77;0.70;;;23.30;70.60;;;;;;5125508;28;20039;-36
2021/06/27 10:45:40;;;;;;;0.73;0.70;;;23.30;70.30;;;;;;5126395;28;20887;-36
2021/06/27 10:48:34;;;;;;;0.90;0.60;;;23.30;70.60;;;;;;5126679;28;20112;-37
2021/06/27 10:51:07;;;;;;;0.60;0.60;;;23.30;70.40;;;;;;5126749;28;20031;-36
2021/06/27 10:54:11;;;;;;;0.75;0.70;;;23.30;70.50;;;;;;5126192;28;20032;-36
2021/06/27 10:57:02;;;;;;;1.05;0.63;;;23.30;70.60;;;;;;5126688;28;20752;-36
2021/06/27 10:59:51;;;;;;;1.13;0.70;;;23.30;70.70;;;;;;5126456;28;20027;-36
2021/06/27 11:02:25;;;;;;;0.65;0.60;;;23.30;71.50;;;;;;5126119;28;20101;-37
2021/06/27 11:04:53;;;;;;;0.75;0.65;;;23.30;70.80;;;;;;5126064;28;20035;-36
2021/06/27 11:07:31;;;;;;;;;;;23.30;70.70;;;;;;5126306;28;20031;-36
2021/06/27 11:10:19;;;;;;;0.90;0.65;;;23.30;70.60;;;;;;5126531;28;19912;-36
2021/06/27 11:13:01;;;;;;;0.60;0.55;;;23.30;70.50;;;;;;5125992;28;20483;-40
2021/06/27 11:15:29;;;;;;;0.80;0.70;;;23.30;70.70;;;;;;5125700;28;20066;-37
2021/06/27 11:18:06;;;;;;;1.13;0.70;;;23.30;70.60;;;;;;5126250;28;20019;-37
2021/06/27 11:20:45;;;;;;;0.98;0.70;;;23.30;70.80;;;;;;5126028;28;20096;-37
2021/06/27 11:23:11;;;;;;;0.80;0.73;;;23.30;70.90;;;;;;5125809;28;20024;-38
2021/06/27 11:25:47;;;;;;;1.00;0.70;;;23.30;71.00;;;;;;5124372;28;20035;-37
2021/06/27 11:28:34;;;;;;;0.70;0.70;;;23.30;70.90;;;;;;5125981;28;20028;-36
2021/06/27 11:31:25;;;;;;;0.82;0.60;;;23.30;71.00;;;;;;5125772;28;20035;-37
2021/06/27 11:34:26;;;;;;;0.70;0.70;;;23.30;70.80;;;;;;5120435;28;20027;-37
2021/06/27 11:36:53;;;;;;;0.98;0.75;;;23.30;70.70;;;;;;5125058;28;20028;-37
2021/06/27 11:39:44;;;;;;;0.68;0.68;;;23.30;70.80;;;;;;5125748;28;20061;-36
2021/06/27 11:42:29;;;;;;;0.90;0.60;;;23.30;70.70;;;;;;5125464;28;20080;-36
2021/06/27 11:45:07;;;;;;;0.88;0.75;;;23.40;71.10;;;;;;5125713;28;20053;-36
2021/06/27 11:47:44;;;;;;;0.82;0.70;;;23.30;70.80;;;;;;5125606;28;20115;-36
2021/06/27 11:50:20;;;;;;;0.93;0.80;;;23.30;71.00;;;;;;5125619;28;20023;-36
2021/06/27 11:53:19;;;;;;;1.00;0.80;;;23.30;71.20;;;;;;5106741;28;20031;-36
2021/06/27 11:55:48;;;;;;;0.88;0.80;;;23.30;71.00;;;;;;5111812;28;20028;-37
2021/06/27 11:58:18;;;;;;;0.75;0.75;;;23.30;71.00;;;;;;5125482;28;20143;-37
2021/06/27 12:00:46;;;;;;;0.82;0.75;;;23.30;71.20;;;;;;5125250;28;20035;-36
2021/06/27 12:03:22;;;;;;;0.70;0.55;;;23.40;71.10;;;;;;5123752;28;20016;-36
2021/06/27 12:05:59;;;;;;;0.73;0.73;;;23.40;71.70;;;;;;5124559;28;20034;-36
2021/06/27 12:08:26;;;;;;;0.80;0.80;;;23.40;71.10;;;;;;5103301;28;20030;-36
2021/06/27 12:10:55;;;;;;;1.17;1.08;;;23.40;71.10;;;;;;5104553;28;20028;-35
2021/06/27 12:13:22;;;;;;;1.00;0.75;;;23.40;71.20;;;;;;5115302;28;20034;-36
2021/06/27 12:15:49;;;;;;;;;;;23.40;71.10;;;;;;5123794;28;20055;-36
2021/06/27 12:18:21;;;;;;;0.90;0.80;;;23.40;71.10;;;;;;5124932;28;19972;-36
2021/06/27 12:20:48;;;;;;;1.05;0.90;;;23.40;71.20;;;;;;5124975;28;20024;-36
2021/06/27 12:23:19;;;;;;;1.23;0.90;;;23.40;71.20;;;;;;5123074;28;20031;-36
2021/06/27 12:25:51;;;;;;;1.08;0.70;;;23.40;71.10;;;;;;5124722;27;20046;-36
2021/06/27 12:28:31;;;;;;;0.85;0.85;;;23.40;71.30;;;;;;5124584;28;20028;-38
2021/06/27 12:31:05;;;;;;;1.00;0.90;;;23.40;71.20;;;;;;5123607;28;20117;-36
2021/06/27 12:33:35;;;;;;;1.48;0.88;;;23.40;71.30;;;;;;5124541;28;20022;-36
2021/06/27 12:36:07;;;;;;;1.10;1.00;;;23.50;71.40;;;;;;5124325;28;20027;-36
2021/06/27 12:38:33;;;;;;;0.95;0.93;;;23.50;71.50;;;;;;5104123;28;20036;-36
2021/06/27 12:41:00;;;;;;;0.82;0.82;;;23.40;71.30;;;;;;5104164;28;20431;-36
2021/06/27 12:43:38;;;;;;;1.10;1.00;;;23.40;71.50;;;;;;5136420;27;20036;-36
2021/06/27 12:46:21;;;;;;;1.40;1.00;;;23.40;71.60;;;;;;5104016;28;20115;-36
2021/06/27 12:48:49;;;;;;;1.40;1.00;;;23.40;71.50;;;;;;5120846;28;20276;-36
2021/06/27 12:51:40;;;;;;;0.93;0.85;;;23.40;71.40;;;;;;5124342;28;20384;-36
2021/06/27 12:54:19;;;;;;;0.98;0.80;;;23.40;71.50;;;;;;5085966;28;20020;-36
2021/06/27 12:56:56;;;;;;;0.88;0.77;;;23.40;71.50;;;;;;5119228;28;20127;-36
2021/06/27 12:59:38;;;;;;;1.70;0.90;;;23.40;71.40;;;;;;5122943;28;20059;-36
2021/06/27 13:02:18;;;;;;;1.05;0.85;;;23.50;71.60;;;;;;5122619;28;20043;-36
2021/06/27 13:04:44;;;;;;;1.08;1.05;;;23.50;71.60;;;;;;5123636;28;20039;-36
2021/06/27 13:07:12;;;;;;;1.35;0.90;;;23.50;71.70;;;;;;5124000;28;20032;-36
2021/06/27 13:09:56;;;;;;;1.00;0.90;;;23.50;71.60;;;;;;5123930;28;20103;-36
2021/06/27 13:12:23;;;;;;;1.02;0.95;;;23.50;71.80;;;;;;5123846;28;20084;-36